Weather History for Fremont, NE

Change the Weather History Date:

Wednesday, May 16, 2012

  Actual Average Record
Temperature  
Mean Temperature 62 °F -  
Max Temperature 79 °F 78 °F 89 °F (1997)
Min Temperature 45 °F 50 °F 35 °F (2011)
Degree Days  
Heating Degree Days 3    
Growing Degree Days 12 (Base 50)    
Moisture  
Dew Point 33 °F    
Average Humidity 34    
Maximum Humidity 67    
Minimum Humidity 15    
Precipitation  
Precipitation 0.00 in - - ()
Sea Level Pressure  
Sea Level Pressure 30.09 in    
Wind  
Wind Speed 4 mph (ESE)    
Max Wind Speed 13 mph    
Max Gust Speed 18 mph    
Visibility 10 miles    
Events      
Averages and records for this station are not official NWS values.
T = Trace of Precipitation, MM = Missing Value Source: NWS Daily Summary

Daily Weather History Graph

Daily Weather History Graph

Search for Another Location

Airport:

Trip Planner

Search our weather history database for the weather conditions in past years. The results will help you decide how hot, cold, wet, or windy it might be!

Date:

Astronomy

May. 16, 2012 Rise Set
Actual Time 6:05 AM CDT 8:39 PM CDT
Civil Twilight 5:33 AM CDT 9:11 PM CDT
Nautical Twilight 4:54 AM CDT 9:51 PM CDT
Astronomical Twilight 4:09 AM CDT 10:36 PM CDT
Moon 3:38 AM CDT (5/16) 4:54 PM CDT (5/16)
Length of Visible Light 15h 37m
Length of Day
14h 34m
Waning Crescent, 16% of the Moon is Illuminated
May 16
Waning Crescent
May 20
New
May 28
First Quarter
Jun 4
Full
Jun 11
Last Quarter

Hourly Weather History & Observations

Time (CDT) Temp. Windchill Dew Point Humidity Pressure Visibility Wind Dir Wind Speed Gust Speed Precip Events Conditions
12:15 AM 58.3 °F - 32.4 °F 38% 30.11 in 10.0 mi Calm Calm - N/A   Clear
12:35 AM 58.5 °F - 32.0 °F 37% 30.11 in 10.0 mi Calm Calm - N/A   Clear
12:55 AM 57.7 °F - 32.2 °F 38% 30.12 in 10.0 mi Calm Calm - N/A   Clear
1:15 AM 55.8 °F - 32.4 °F 41% 30.12 in 10.0 mi Calm Calm - N/A   Clear
1:35 AM 55.8 °F - 32.5 °F 41% 30.12 in 10.0 mi Calm Calm - N/A   Clear
1:55 AM 54.0 °F - 33.1 °F 45% 30.12 in 10.0 mi Calm Calm - N/A   Clear
2:15 AM 54.5 °F - 32.9 °F 44% 30.12 in 10.0 mi Calm Calm - N/A   Clear
2:35 AM 53.6 °F - 33.3 °F 46% 30.13 in 10.0 mi Calm Calm - N/A   Clear
2:55 AM 52.0 °F - 34.5 °F 51% 30.13 in 10.0 mi NW 4.6 mph - N/A   Clear
3:15 AM 50.2 °F - 34.5 °F 55% 30.13 in 10.0 mi Calm Calm - N/A   Clear
3:35 AM 49.8 °F - 34.7 °F 56% 30.13 in 10.0 mi West 3.5 mph - N/A   Clear
3:55 AM 50.5 °F - 34.7 °F 55% 30.13 in 10.0 mi NW 3.5 mph - N/A   Clear
4:15 AM 50.2 °F - 34.5 °F 55% 30.14 in 10.0 mi NW 4.6 mph - N/A   Clear
4:35 AM 48.0 °F - 34.9 °F 60% 30.14 in 10.0 mi NW 3.5 mph - N/A   Clear
4:55 AM 46.0 °F - 34.9 °F 65% 30.14 in 10.0 mi Calm Calm - N/A   Clear
5:15 AM 46.8 °F - 34.9 °F 63% 30.14 in 10.0 mi Calm Calm - N/A   Clear
5:35 AM 46.4 °F - 34.3 °F 63% 30.14 in 10.0 mi Calm Calm - N/A   Clear
5:55 AM 46.0 °F - 34.5 °F 64% 30.15 in 10.0 mi Calm Calm - N/A   Clear
6:15 AM 46.6 °F - 34.7 °F 63% 30.15 in 10.0 mi NW 4.6 mph - N/A   Clear
6:35 AM 45.9 °F 44.6 °F 35.1 °F 66% 30.16 in 10.0 mi West 3.5 mph - N/A   Clear
6:55 AM 46.9 °F - 36.3 °F 67% 30.16 in 10.0 mi Calm Calm - N/A   Clear
7:15 AM 49.8 °F - 36.1 °F 59% 30.16 in 10.0 mi Calm Calm - N/A   Clear
7:35 AM 52.7 °F - 36.7 °F 55% 30.17 in 10.0 mi Calm Calm - N/A   Clear
7:55 AM 55.2 °F - 36.3 °F 49% 30.17 in 10.0 mi Calm Calm - N/A   Clear
8:15 AM 57.9 °F - 35.4 °F 43% 30.17 in 10.0 mi ENE 3.5 mph - N/A   Clear
8:35 AM 60.1 °F - 34.7 °F 39% 30.18 in 10.0 mi East 4.6 mph - N/A   Clear
8:55 AM 62.4 °F - 32.7 °F 33% 30.18 in 10.0 mi East 8.1 mph - N/A   Clear
9:15 AM 63.5 °F - 33.3 °F 32% 30.17 in 10.0 mi ENE 10.4 mph - N/A   Clear
9:35 AM 65.3 °F - 33.1 °F 30% 30.16 in 10.0 mi East 10.4 mph - N/A   Clear
9:55 AM 66.2 °F - 32.4 °F 28% 30.17 in 10.0 mi ENE 5.8 mph - N/A   Clear
10:15 AM 67.6 °F - 32.2 °F 27% 30.16 in 10.0 mi East 8.1 mph - N/A   Clear
10:35 AM 68.4 °F - 30.7 °F 25% 30.16 in 10.0 mi East 8.1 mph - N/A   Clear
10:55 AM 68.5 °F - 30.6 °F 24% 30.16 in 10.0 mi East 6.9 mph - N/A   Clear
11:15 AM 69.4 °F - 32.0 °F 25% 30.16 in 10.0 mi SSE 6.9 mph - N/A   Clear
11:35 AM 70.0 °F - 31.1 °F 24% 30.16 in 10.0 mi SE 8.1 mph - N/A   Clear
11:55 AM 71.2 °F - 30.9 °F 23% 30.16 in 10.0 mi East 3.5 mph - N/A   Clear
12:15 PM 71.4 °F - 30.4 °F 22% 30.15 in 10.0 mi ENE 4.6 mph - N/A   Clear
12:35 PM 72.1 °F - 31.3 °F 22% 30.15 in 10.0 mi SE 5.8 mph - N/A   Clear
12:55 PM 72.5 °F - 30.0 °F 21% 30.14 in 10.0 mi Calm Calm - N/A   Clear
1:15 PM 73.9 °F - 29.8 °F 20% 30.13 in 10.0 mi South 3.5 mph - N/A   Clear
1:35 PM 74.1 °F - 29.3 °F 19% 30.12 in 10.0 mi ESE 6.9 mph - N/A   Clear
1:55 PM 74.3 °F - 29.7 °F 19% 30.11 in 10.0 mi East 3.5 mph - N/A   Clear
2:15 PM 76.1 °F - 31.8 °F 20% 30.10 in 10.0 mi SE 6.9 mph - N/A   Clear
2:35 PM 75.6 °F - 32.2 °F 20% 30.09 in 10.0 mi South 6.9 mph - N/A   Clear
2:55 PM 77.0 °F - 32.4 °F 20% 30.08 in 10.0 mi SSE 9.2 mph - N/A   Clear
3:15 PM 77.2 °F - 31.8 °F 19% 30.07 in 10.0 mi SE 10.4 mph - N/A   Clear
3:35 PM 77.5 °F - 31.1 °F 18% 30.06 in 10.0 mi SE 10.4 mph - N/A   Clear
3:55 PM 77.9 °F - 31.5 °F 18% 30.04 in 10.0 mi SSE 11.5 mph - N/A   Clear
4:15 PM 78.4 °F - 30.9 °F 18% 30.04 in 10.0 mi SE 12.7 mph 16.1 mph N/A   Clear
4:35 PM 79.0 °F - 27.9 °F 15% 30.03 in 10.0 mi SSE 10.4 mph 17.3 mph N/A   Clear
4:55 PM 79.3 °F - 27.7 °F 15% 30.02 in 10.0 mi SSE 8.1 mph - N/A   Clear
5:35 PM 79.3 °F - 29.5 °F 16% 30.01 in 10.0 mi ESE 9.2 mph - N/A   Clear
5:55 PM 79.2 °F - 31.5 °F 18% 30.01 in 10.0 mi ESE 11.5 mph - N/A   Clear
6:35 PM 78.4 °F - 26.6 °F 15% 30.00 in 10.0 mi SE 11.5 mph - N/A   Clear
6:55 PM 77.5 °F - 28.6 °F 17% 29.99 in 10.0 mi SE 11.5 mph - N/A   Clear
7:15 PM 76.6 °F - 28.9 °F 17% 29.98 in 10.0 mi ESE 11.5 mph - N/A   Clear
7:35 PM 76.5 °F - 30.6 °F 19% 29.98 in 10.0 mi ESE 11.5 mph - N/A   Clear
7:55 PM 75.6 °F - 31.8 °F 20% 29.98 in 10.0 mi ESE 11.5 mph 17.3 mph N/A   Clear
8:15 PM 74.7 °F - 32.0 °F 21% 29.97 in 10.0 mi ESE 10.4 mph - N/A   Clear
8:35 PM 73.0 °F - 32.5 °F 23% 29.98 in 10.0 mi SE 8.1 mph - N/A   Clear
9:15 PM 69.1 °F - 35.8 °F 29% 29.99 in 10.0 mi SE 5.8 mph - N/A   Clear
9:35 PM 67.6 °F - 36.3 °F 32% 29.99 in 10.0 mi SE 5.8 mph - N/A   Clear
9:55 PM 67.5 °F - 36.0 °F 31% 29.99 in 10.0 mi SE 6.9 mph - N/A   Clear
10:15 PM 67.8 °F - 35.4 °F 30% 29.99 in 10.0 mi SE 8.1 mph - N/A   Clear
10:35 PM 67.3 °F - 35.6 °F 31% 29.99 in 10.0 mi SE 9.2 mph - N/A   Clear
10:55 PM 67.8 °F - 36.1 °F 31% 29.99 in 10.0 mi ESE 8.1 mph - N/A   Clear
11:15 PM 67.1 °F - 36.5 °F 32% 29.98 in 10.0 mi SE 9.2 mph - N/A   Clear
11:35 PM 67.1 °F - 36.7 °F 33% 29.98 in 10.0 mi SE 9.2 mph - N/A   Clear
11:55 PM 67.1 °F - 36.5 °F 32% 29.97 in 10.0 mi SE 12.7 mph 18.4 mph N/A   Clear